sensor_id;sensor_type;location;lat;lon;timestamp;P1;durP1;ratioP1;P2;durP2;ratioP2
25982;SDS011;13773;48.868;10.730;2023-11-21T00:02:19;8.93;;;3.43;;
25982;SDS011;13773;48.868;10.730;2023-11-21T00:04:45;5.50;;;2.53;;
25982;SDS011;13773;48.868;10.730;2023-11-21T00:07:12;6.37;;;2.40;;
25982;SDS011;13773;48.868;10.730;2023-11-21T00:09:39;7.03;;;2.67;;
25982;SDS011;13773;48.868;10.730;2023-11-21T00:12:06;6.83;;;2.60;;
25982;SDS011;13773;48.868;10.730;2023-11-21T00:14:35;9.20;;;3.10;;
25982;SDS011;13773;48.868;10.730;2023-11-21T00:17:01;6.53;;;2.47;;
25982;SDS011;13773;48.868;10.730;2023-11-21T00:19:27;5.90;;;2.40;;
25982;SDS011;13773;48.868;10.730;2023-11-21T00:21:53;4.30;;;2.33;;
25982;SDS011;13773;48.868;10.730;2023-11-21T00:24:19;9.53;;;2.63;;
25982;SDS011;13773;48.868;10.730;2023-11-21T00:26:44;9.33;;;2.73;;
25982;SDS011;13773;48.868;10.730;2023-11-21T00:29:11;8.67;;;2.63;;
25982;SDS011;13773;48.868;10.730;2023-11-21T00:31:36;6.43;;;2.30;;
25982;SDS011;13773;48.868;10.730;2023-11-21T00:34:03;5.63;;;2.90;;
25982;SDS011;13773;48.868;10.730;2023-11-21T00:36:30;7.10;;;3.10;;
25982;SDS011;13773;48.868;10.730;2023-11-21T00:38:57;6.63;;;2.70;;
25982;SDS011;13773;48.868;10.730;2023-11-21T00:41:23;7.83;;;2.63;;
25982;SDS011;13773;48.868;10.730;2023-11-21T00:43:48;7.73;;;2.57;;
25982;SDS011;13773;48.868;10.730;2023-11-21T00:46:14;7.43;;;2.93;;
25982;SDS011;13773;48.868;10.730;2023-11-21T00:48:40;7.13;;;2.60;;
25982;SDS011;13773;48.868;10.730;2023-11-21T00:51:05;4.70;;;2.40;;
25982;SDS011;13773;48.868;10.730;2023-11-21T00:53:31;5.53;;;2.20;;
25982;SDS011;13773;48.868;10.730;2023-11-21T00:55:57;8.47;;;2.40;;
25982;SDS011;13773;48.868;10.730;2023-11-21T00:58:23;5.17;;;2.20;;
25982;SDS011;13773;48.868;10.730;2023-11-21T01:00:49;3.10;;;1.80;;
25982;SDS011;13773;48.868;10.730;2023-11-21T01:03:15;5.00;;;1.90;;
25982;SDS011;13773;48.868;10.730;2023-11-21T01:05:41;3.40;;;1.93;;
25982;SDS011;13773;48.868;10.730;2023-11-21T01:08:06;4.20;;;1.80;;
25982;SDS011;13773;48.868;10.730;2023-11-21T01:10:32;8.40;;;2.10;;
25982;SDS011;13773;48.868;10.730;2023-11-21T01:12:59;8.10;;;2.53;;
25982;SDS011;13773;48.868;10.730;2023-11-21T01:15:24;7.47;;;2.30;;
25982;SDS011;13773;48.868;10.730;2023-11-21T01:17:51;6.23;;;2.70;;
25982;SDS011;13773;48.868;10.730;2023-11-21T01:20:17;7.47;;;2.33;;
25982;SDS011;13773;48.868;10.730;2023-11-21T01:22:43;8.50;;;2.43;;
25982;SDS011;13773;48.868;10.730;2023-11-21T01:25:09;9.53;;;2.37;;
25982;SDS011;13773;48.868;10.730;2023-11-21T01:27:35;5.83;;;2.63;;
25982;SDS011;13773;48.868;10.730;2023-11-21T01:30:02;5.93;;;2.90;;
25982;SDS011;13773;48.868;10.730;2023-11-21T01:32:29;8.80;;;3.37;;
25982;SDS011;13773;48.868;10.730;2023-11-21T01:34:55;4.83;;;2.50;;
25982;SDS011;13773;48.868;10.730;2023-11-21T01:37:21;4.53;;;2.40;;
25982;SDS011;13773;48.868;10.730;2023-11-21T01:39:47;6.60;;;2.50;;
25982;SDS011;13773;48.868;10.730;2023-11-21T01:42:13;7.43;;;2.57;;
25982;SDS011;13773;48.868;10.730;2023-11-21T01:44:39;5.27;;;2.40;;
25982;SDS011;13773;48.868;10.730;2023-11-21T01:47:05;7.90;;;2.40;;
25982;SDS011;13773;48.868;10.730;2023-11-21T01:49:32;5.93;;;2.73;;
25982;SDS011;13773;48.868;10.730;2023-11-21T01:51:58;8.40;;;2.50;;
25982;SDS011;13773;48.868;10.730;2023-11-21T01:54:24;5.50;;;2.77;;
25982;SDS011;13773;48.868;10.730;2023-11-21T01:56:50;6.03;;;3.00;;
25982;SDS011;13773;48.868;10.730;2023-11-21T01:59:20;7.93;;;2.50;;
25982;SDS011;13773;48.868;10.730;2023-11-21T02:01:47;6.60;;;2.70;;
25982;SDS011;13773;48.868;10.730;2023-11-21T02:04:15;6.87;;;2.50;;
25982;SDS011;13773;48.868;10.730;2023-11-21T02:06:41;9.93;;;3.13;;
25982;SDS011;13773;48.868;10.730;2023-11-21T02:09:07;6.80;;;2.60;;
25982;SDS011;13773;48.868;10.730;2023-11-21T02:11:34;7.13;;;2.60;;
25982;SDS011;13773;48.868;10.730;2023-11-21T02:14:00;7.67;;;2.70;;
25982;SDS011;13773;48.868;10.730;2023-11-21T02:16:26;5.67;;;2.13;;
25982;SDS011;13773;48.868;10.730;2023-11-21T02:18:52;6.10;;;2.23;;
25982;SDS011;13773;48.868;10.730;2023-11-21T02:21:18;5.30;;;2.00;;
25982;SDS011;13773;48.868;10.730;2023-11-21T02:23:44;3.10;;;1.97;;
25982;SDS011;13773;48.868;10.730;2023-11-21T02:26:11;2.80;;;1.60;;
25982;SDS011;13773;48.868;10.730;2023-11-21T02:28:38;5.30;;;2.03;;
25982;SDS011;13773;48.868;10.730;2023-11-21T02:31:05;2.87;;;1.67;;
25982;SDS011;13773;48.868;10.730;2023-11-21T02:33:31;6.70;;;1.90;;
25982;SDS011;13773;48.868;10.730;2023-11-21T02:35:59;3.53;;;1.50;;
25982;SDS011;13773;48.868;10.730;2023-11-21T02:38:25;3.43;;;1.83;;
25982;SDS011;13773;48.868;10.730;2023-11-21T02:40:51;5.40;;;1.90;;
25982;SDS011;13773;48.868;10.730;2023-11-21T02:43:17;4.53;;;1.60;;
25982;SDS011;13773;48.868;10.730;2023-11-21T02:45:42;2.47;;;1.37;;
25982;SDS011;13773;48.868;10.730;2023-11-21T02:48:08;6.63;;;1.73;;
25982;SDS011;13773;48.868;10.730;2023-11-21T02:50:34;2.63;;;1.43;;
25982;SDS011;13773;48.868;10.730;2023-11-21T02:53:00;3.00;;;1.50;;
25982;SDS011;13773;48.868;10.730;2023-11-21T02:55:26;5.70;;;1.70;;
25982;SDS011;13773;48.868;10.730;2023-11-21T02:57:52;2.07;;;1.87;;
25982;SDS011;13773;48.868;10.730;2023-11-21T03:00:18;4.80;;;1.80;;
25982;SDS011;13773;48.868;10.730;2023-11-21T03:02:44;4.53;;;2.67;;
25982;SDS011;13773;48.868;10.730;2023-11-21T03:05:09;4.90;;;2.20;;
25982;SDS011;13773;48.868;10.730;2023-11-21T03:07:36;7.40;;;1.97;;
25982;SDS011;13773;48.868;10.730;2023-11-21T03:10:02;6.63;;;2.50;;
25982;SDS011;13773;48.868;10.730;2023-11-21T03:12:29;7.67;;;2.43;;
25982;SDS011;13773;48.868;10.730;2023-11-21T03:14:55;5.63;;;2.53;;
25982;SDS011;13773;48.868;10.730;2023-11-21T03:17:21;6.87;;;2.67;;
25982;SDS011;13773;48.868;10.730;2023-11-21T03:19:47;6.53;;;2.97;;
25982;SDS011;13773;48.868;10.730;2023-11-21T03:22:12;5.00;;;2.70;;
25982;SDS011;13773;48.868;10.730;2023-11-21T03:24:38;9.03;;;3.03;;
25982;SDS011;13773;48.868;10.730;2023-11-21T03:27:04;4.53;;;2.90;;
25982;SDS011;13773;48.868;10.730;2023-11-21T03:29:30;7.00;;;3.17;;
25982;SDS011;13773;48.868;10.730;2023-11-21T03:31:55;5.57;;;2.90;;
25982;SDS011;13773;48.868;10.730;2023-11-21T03:34:27;6.57;;;3.00;;
25982;SDS011;13773;48.868;10.730;2023-11-21T03:36:53;10.20;;;3.47;;
25982;SDS011;13773;48.868;10.730;2023-11-21T03:39:21;5.90;;;3.27;;
25982;SDS011;13773;48.868;10.730;2023-11-21T03:41:48;6.00;;;3.20;;
25982;SDS011;13773;48.868;10.730;2023-11-21T03:44:13;5.67;;;2.90;;
25982;SDS011;13773;48.868;10.730;2023-11-21T03:46:39;10.27;;;3.73;;
25982;SDS011;13773;48.868;10.730;2023-11-21T03:49:05;8.60;;;3.20;;
25982;SDS011;13773;48.868;10.730;2023-11-21T03:51:31;6.13;;;2.80;;
25982;SDS011;13773;48.868;10.730;2023-11-21T03:53:56;7.10;;;3.03;;
25982;SDS011;13773;48.868;10.730;2023-11-21T03:56:22;8.40;;;3.00;;
25982;SDS011;13773;48.868;10.730;2023-11-21T03:58:48;5.37;;;2.70;;
25982;SDS011;13773;48.868;10.730;2023-11-21T04:01:23;4.73;;;2.73;;
25982;SDS011;13773;48.868;10.730;2023-11-21T04:03:50;6.67;;;2.97;;
25982;SDS011;13773;48.868;10.730;2023-11-21T04:06:16;5.53;;;2.90;;
25982;SDS011;13773;48.868;10.730;2023-11-21T04:08:45;7.23;;;3.00;;
25982;SDS011;13773;48.868;10.730;2023-11-21T04:11:11;5.50;;;2.93;;
25982;SDS011;13773;48.868;10.730;2023-11-21T04:13:38;6.50;;;3.10;;
25982;SDS011;13773;48.868;10.730;2023-11-21T04:16:05;5.33;;;3.37;;
25982;SDS011;13773;48.868;10.730;2023-11-21T04:18:31;8.80;;;2.90;;
25982;SDS011;13773;48.868;10.730;2023-11-21T04:20:57;10.10;;;2.90;;
25982;SDS011;13773;48.868;10.730;2023-11-21T04:23:23;5.20;;;2.63;;
25982;SDS011;13773;48.868;10.730;2023-11-21T04:25:48;6.00;;;3.13;;
25982;SDS011;13773;48.868;10.730;2023-11-21T04:28:14;5.97;;;3.00;;
25982;SDS011;13773;48.868;10.730;2023-11-21T04:30:39;5.03;;;2.87;;
25982;SDS011;13773;48.868;10.730;2023-11-21T04:33:05;6.27;;;2.87;;
25982;SDS011;13773;48.868;10.730;2023-11-21T04:35:32;10.20;;;2.73;;
25982;SDS011;13773;48.868;10.730;2023-11-21T04:37:58;5.73;;;2.80;;
25982;SDS011;13773;48.868;10.730;2023-11-21T04:40:23;6.07;;;2.90;;
25982;SDS011;13773;48.868;10.730;2023-11-21T04:42:51;6.80;;;2.70;;
25982;SDS011;13773;48.868;10.730;2023-11-21T04:45:16;5.87;;;2.50;;
25982;SDS011;13773;48.868;10.730;2023-11-21T04:47:42;6.53;;;2.87;;
25982;SDS011;13773;48.868;10.730;2023-11-21T04:50:08;6.07;;;2.80;;
25982;SDS011;13773;48.868;10.730;2023-11-21T04:52:34;4.37;;;2.77;;
25982;SDS011;13773;48.868;10.730;2023-11-21T04:55:00;5.97;;;2.60;;
25982;SDS011;13773;48.868;10.730;2023-11-21T04:57:27;5.17;;;2.77;;
25982;SDS011;13773;48.868;10.730;2023-11-21T04:59:53;4.90;;;2.40;;
25982;SDS011;13773;48.868;10.730;2023-11-21T05:02:19;7.33;;;2.83;;
25982;SDS011;13773;48.868;10.730;2023-11-21T05:04:47;6.37;;;2.63;;
25982;SDS011;13773;48.868;10.730;2023-11-21T05:07:13;6.93;;;2.63;;
25982;SDS011;13773;48.868;10.730;2023-11-21T05:09:44;9.43;;;2.90;;
25982;SDS011;13773;48.868;10.730;2023-11-21T05:12:14;8.03;;;2.40;;
25982;SDS011;13773;48.868;10.730;2023-11-21T05:14:39;6.53;;;2.87;;
25982;SDS011;13773;48.868;10.730;2023-11-21T05:17:06;5.83;;;2.43;;
25982;SDS011;13773;48.868;10.730;2023-11-21T05:19:33;6.23;;;2.53;;
25982;SDS011;13773;48.868;10.730;2023-11-21T05:22:00;6.77;;;2.50;;
25982;SDS011;13773;48.868;10.730;2023-11-21T05:24:26;8.53;;;2.93;;
25982;SDS011;13773;48.868;10.730;2023-11-21T05:26:52;7.17;;;2.50;;
25982;SDS011;13773;48.868;10.730;2023-11-21T05:29:18;5.33;;;2.20;;
25982;SDS011;13773;48.868;10.730;2023-11-21T05:31:43;7.53;;;2.83;;
25982;SDS011;13773;48.868;10.730;2023-11-21T05:34:09;9.30;;;2.93;;
25982;SDS011;13773;48.868;10.730;2023-11-21T05:36:34;7.43;;;3.03;;
25982;SDS011;13773;48.868;10.730;2023-11-21T05:39:00;6.67;;;2.60;;
25982;SDS011;13773;48.868;10.730;2023-11-21T05:41:28;8.50;;;2.43;;
25982;SDS011;13773;48.868;10.730;2023-11-21T05:43:53;7.50;;;2.87;;
25982;SDS011;13773;48.868;10.730;2023-11-21T05:46:19;7.00;;;2.73;;
25982;SDS011;13773;48.868;10.730;2023-11-21T05:48:45;7.27;;;2.67;;
25982;SDS011;13773;48.868;10.730;2023-11-21T05:51:11;6.50;;;2.90;;
25982;SDS011;13773;48.868;10.730;2023-11-21T05:53:38;5.13;;;2.80;;
25982;SDS011;13773;48.868;10.730;2023-11-21T05:56:04;7.20;;;2.67;;
25982;SDS011;13773;48.868;10.730;2023-11-21T05:58:30;6.93;;;2.70;;
25982;SDS011;13773;48.868;10.730;2023-11-21T06:00:56;6.07;;;2.43;;
25982;SDS011;13773;48.868;10.730;2023-11-21T06:03:22;8.27;;;3.10;;
25982;SDS011;13773;48.868;10.730;2023-11-21T06:05:48;4.50;;;2.70;;
25982;SDS011;13773;48.868;10.730;2023-11-21T06:08:13;9.73;;;2.70;;
25982;SDS011;13773;48.868;10.730;2023-11-21T06:10:41;6.00;;;2.90;;
25982;SDS011;13773;48.868;10.730;2023-11-21T06:13:08;10.40;;;2.73;;
25982;SDS011;13773;48.868;10.730;2023-11-21T06:15:35;6.30;;;2.93;;
25982;SDS011;13773;48.868;10.730;2023-11-21T06:18:01;5.13;;;2.60;;
25982;SDS011;13773;48.868;10.730;2023-11-21T06:20:27;7.07;;;3.37;;
25982;SDS011;13773;48.868;10.730;2023-11-21T06:22:54;10.90;;;4.20;;
25982;SDS011;13773;48.868;10.730;2023-11-21T06:25:20;7.90;;;3.70;;
25982;SDS011;13773;48.868;10.730;2023-11-21T06:27:46;10.23;;;5.13;;
25982;SDS011;13773;48.868;10.730;2023-11-21T06:30:13;5.43;;;4.33;;
25982;SDS011;13773;48.868;10.730;2023-11-21T06:32:40;4.73;;;3.90;;
25982;SDS011;13773;48.868;10.730;2023-11-21T06:35:11;9.30;;;4.50;;
25982;SDS011;13773;48.868;10.730;2023-11-21T06:37:38;7.53;;;4.50;;
25982;SDS011;13773;48.868;10.730;2023-11-21T06:40:03;8.03;;;4.90;;
25982;SDS011;13773;48.868;10.730;2023-11-21T06:42:30;8.57;;;4.53;;
25982;SDS011;13773;48.868;10.730;2023-11-21T06:44:56;10.83;;;5.10;;
25982;SDS011;13773;48.868;10.730;2023-11-21T06:47:23;10.03;;;6.67;;
25982;SDS011;13773;48.868;10.730;2023-11-21T06:49:53;6.80;;;3.83;;
25982;SDS011;13773;48.868;10.730;2023-11-21T06:52:18;6.70;;;3.93;;
25982;SDS011;13773;48.868;10.730;2023-11-21T06:54:45;5.23;;;2.37;;
25982;SDS011;13773;48.868;10.730;2023-11-21T06:57:12;6.77;;;2.77;;
25982;SDS011;13773;48.868;10.730;2023-11-21T06:59:38;5.57;;;3.07;;
25982;SDS011;13773;48.868;10.730;2023-11-21T07:02:04;5.73;;;2.93;;
25982;SDS011;13773;48.868;10.730;2023-11-21T07:04:33;9.47;;;4.40;;
25982;SDS011;13773;48.868;10.730;2023-11-21T07:06:59;9.70;;;3.57;;
25982;SDS011;13773;48.868;10.730;2023-11-21T07:09:24;8.27;;;4.27;;
25982;SDS011;13773;48.868;10.730;2023-11-21T07:11:54;8.20;;;3.97;;
25982;SDS011;13773;48.868;10.730;2023-11-21T07:14:20;6.43;;;3.70;;
25982;SDS011;13773;48.868;10.730;2023-11-21T07:16:46;7.67;;;4.60;;
25982;SDS011;13773;48.868;10.730;2023-11-21T07:19:12;8.40;;;4.73;;
25982;SDS011;13773;48.868;10.730;2023-11-21T07:21:38;9.73;;;5.13;;
25982;SDS011;13773;48.868;10.730;2023-11-21T07:24:05;8.00;;;4.30;;
25982;SDS011;13773;48.868;10.730;2023-11-21T07:26:32;8.90;;;4.17;;
25982;SDS011;13773;48.868;10.730;2023-11-21T07:28:59;7.87;;;4.60;;
25982;SDS011;13773;48.868;10.730;2023-11-21T07:31:25;9.27;;;4.73;;
25982;SDS011;13773;48.868;10.730;2023-11-21T07:33:51;7.20;;;4.23;;
25982;SDS011;13773;48.868;10.730;2023-11-21T07:36:17;6.67;;;4.13;;
25982;SDS011;13773;48.868;10.730;2023-11-21T07:38:44;7.03;;;4.17;;
25982;SDS011;13773;48.868;10.730;2023-11-21T07:41:10;6.00;;;3.57;;
25982;SDS011;13773;48.868;10.730;2023-11-21T07:43:36;8.50;;;3.73;;
25982;SDS011;13773;48.868;10.730;2023-11-21T07:46:05;6.33;;;3.77;;
25982;SDS011;13773;48.868;10.730;2023-11-21T07:48:30;6.80;;;3.07;;
25982;SDS011;13773;48.868;10.730;2023-11-21T07:50:57;6.67;;;3.23;;
25982;SDS011;13773;48.868;10.730;2023-11-21T07:53:26;5.97;;;2.90;;
25982;SDS011;13773;48.868;10.730;2023-11-21T07:55:54;4.83;;;2.40;;
25982;SDS011;13773;48.868;10.730;2023-11-21T07:58:20;6.97;;;3.20;;
25982;SDS011;13773;48.868;10.730;2023-11-21T08:00:46;7.40;;;2.83;;
25982;SDS011;13773;48.868;10.730;2023-11-21T08:03:15;4.97;;;2.97;;
25982;SDS011;13773;48.868;10.730;2023-11-21T08:05:41;5.00;;;2.77;;
25982;SDS011;13773;48.868;10.730;2023-11-21T08:08:07;10.93;;;3.03;;
25982;SDS011;13773;48.868;10.730;2023-11-21T08:10:33;6.53;;;2.87;;
25982;SDS011;13773;48.868;10.730;2023-11-21T08:12:59;7.37;;;3.00;;
25982;SDS011;13773;48.868;10.730;2023-11-21T08:15:24;8.80;;;3.30;;
25982;SDS011;13773;48.868;10.730;2023-11-21T08:17:50;4.97;;;3.03;;
25982;SDS011;13773;48.868;10.730;2023-11-21T08:20:16;5.70;;;3.40;;
25982;SDS011;13773;48.868;10.730;2023-11-21T08:22:43;6.33;;;2.90;;
25982;SDS011;13773;48.868;10.730;2023-11-21T08:25:09;5.20;;;2.80;;
25982;SDS011;13773;48.868;10.730;2023-11-21T08:27:35;5.57;;;2.57;;
25982;SDS011;13773;48.868;10.730;2023-11-21T08:30:02;4.83;;;2.83;;
25982;SDS011;13773;48.868;10.730;2023-11-21T08:32:28;6.47;;;3.30;;
25982;SDS011;13773;48.868;10.730;2023-11-21T08:34:57;3.47;;;2.10;;
25982;SDS011;13773;48.868;10.730;2023-11-21T08:37:23;5.60;;;2.30;;
25982;SDS011;13773;48.868;10.730;2023-11-21T08:39:49;6.63;;;2.40;;
25982;SDS011;13773;48.868;10.730;2023-11-21T08:42:15;5.23;;;2.40;;
25982;SDS011;13773;48.868;10.730;2023-11-21T08:44:40;3.57;;;2.07;;
25982;SDS011;13773;48.868;10.730;2023-11-21T08:47:06;4.63;;;2.17;;
25982;SDS011;13773;48.868;10.730;2023-11-21T08:49:32;4.60;;;2.17;;
25982;SDS011;13773;48.868;10.730;2023-11-21T08:51:58;7.20;;;2.43;;
25982;SDS011;13773;48.868;10.730;2023-11-21T08:54:25;7.33;;;2.40;;
25982;SDS011;13773;48.868;10.730;2023-11-21T08:56:54;4.27;;;2.13;;
25982;SDS011;13773;48.868;10.730;2023-11-21T08:59:20;4.97;;;2.40;;
25982;SDS011;13773;48.868;10.730;2023-11-21T09:01:46;4.33;;;2.83;;
25982;SDS011;13773;48.868;10.730;2023-11-21T09:04:12;5.07;;;2.47;;
25982;SDS011;13773;48.868;10.730;2023-11-21T09:06:38;3.17;;;2.50;;
25982;SDS011;13773;48.868;10.730;2023-11-21T09:09:07;5.10;;;3.07;;
25982;SDS011;13773;48.868;10.730;2023-11-21T09:11:35;4.47;;;2.60;;
25982;SDS011;13773;48.868;10.730;2023-11-21T09:14:01;5.13;;;2.70;;
25982;SDS011;13773;48.868;10.730;2023-11-21T09:16:28;6.70;;;2.97;;
25982;SDS011;13773;48.868;10.730;2023-11-21T09:18:54;7.83;;;2.80;;
25982;SDS011;13773;48.868;10.730;2023-11-21T09:21:20;5.40;;;2.77;;
25982;SDS011;13773;48.868;10.730;2023-11-21T09:23:45;4.93;;;2.50;;
25982;SDS011;13773;48.868;10.730;2023-11-21T09:26:11;2.77;;;2.43;;
25982;SDS011;13773;48.868;10.730;2023-11-21T09:28:37;5.63;;;2.53;;
25982;SDS011;13773;48.868;10.730;2023-11-21T09:31:07;3.07;;;2.03;;
25982;SDS011;13773;48.868;10.730;2023-11-21T09:33:34;5.47;;;2.90;;
25982;SDS011;13773;48.868;10.730;2023-11-21T09:35:59;3.77;;;2.27;;
25982;SDS011;13773;48.868;10.730;2023-11-21T09:38:26;4.00;;;2.20;;
25982;SDS011;13773;48.868;10.730;2023-11-21T09:40:53;3.83;;;2.47;;
25982;SDS011;13773;48.868;10.730;2023-11-21T09:43:20;3.43;;;2.00;;
25982;SDS011;13773;48.868;10.730;2023-11-21T09:45:47;4.40;;;2.30;;
25982;SDS011;13773;48.868;10.730;2023-11-21T09:48:18;3.43;;;2.50;;
25982;SDS011;13773;48.868;10.730;2023-11-21T09:50:45;3.23;;;2.30;;
25982;SDS011;13773;48.868;10.730;2023-11-21T09:55:51;6.70;;;3.27;;
25982;SDS011;13773;48.868;10.730;2023-11-21T09:58:17;3.93;;;2.63;;
25982;SDS011;13773;48.868;10.730;2023-11-21T10:00:47;4.13;;;2.43;;
25982;SDS011;13773;48.868;10.730;2023-11-21T10:03:14;3.37;;;2.77;;
25982;SDS011;13773;48.868;10.730;2023-11-21T10:05:44;3.40;;;2.40;;
25982;SDS011;13773;48.868;10.730;2023-11-21T10:08:15;2.87;;;2.47;;
25982;SDS011;13773;48.868;10.730;2023-11-21T10:10:44;3.10;;;2.63;;
25982;SDS011;13773;48.868;10.730;2023-11-21T10:13:11;3.30;;;2.73;;
25982;SDS011;13773;48.868;10.730;2023-11-21T10:15:37;2.97;;;2.67;;
25982;SDS011;13773;48.868;10.730;2023-11-21T10:18:05;2.87;;;2.30;;
25982;SDS011;13773;48.868;10.730;2023-11-21T10:20:32;3.20;;;2.90;;
25982;SDS011;13773;48.868;10.730;2023-11-21T10:22:59;4.30;;;2.60;;
25982;SDS011;13773;48.868;10.730;2023-11-21T10:25:27;2.50;;;2.30;;
25982;SDS011;13773;48.868;10.730;2023-11-21T10:27:56;3.40;;;2.70;;
25982;SDS011;13773;48.868;10.730;2023-11-21T10:30:34;2.83;;;2.60;;
25982;SDS011;13773;48.868;10.730;2023-11-21T10:33:02;2.40;;;2.20;;
25982;SDS011;13773;48.868;10.730;2023-11-21T10:38:16;2.17;;;1.50;;
25982;SDS011;13773;48.868;10.730;2023-11-21T10:40:43;2.63;;;2.10;;
25982;SDS011;13773;48.868;10.730;2023-11-21T10:43:11;2.23;;;2.03;;
25982;SDS011;13773;48.868;10.730;2023-11-21T10:45:38;2.13;;;1.97;;
25982;SDS011;13773;48.868;10.730;2023-11-21T10:48:10;2.13;;;1.90;;
25982;SDS011;13773;48.868;10.730;2023-11-21T10:50:42;1.93;;;1.83;;
25982;SDS011;13773;48.868;10.730;2023-11-21T10:53:09;2.07;;;1.87;;
25982;SDS011;13773;48.868;10.730;2023-11-21T10:55:36;3.40;;;2.20;;
25982;SDS011;13773;48.868;10.730;2023-11-21T10:58:03;1.90;;;1.80;;
25982;SDS011;13773;48.868;10.730;2023-11-21T11:00:30;2.10;;;2.00;;
25982;SDS011;13773;48.868;10.730;2023-11-21T11:02:56;2.50;;;2.30;;
25982;SDS011;13773;48.868;10.730;2023-11-21T11:05:24;2.23;;;2.03;;
25982;SDS011;13773;48.868;10.730;2023-11-21T11:08:05;3.97;;;2.70;;
25982;SDS011;13773;48.868;10.730;2023-11-21T11:10:32;2.80;;;2.13;;
25982;SDS011;13773;48.868;10.730;2023-11-21T11:12:59;3.57;;;2.87;;
25982;SDS011;13773;48.868;10.730;2023-11-21T11:15:25;1.50;;;1.40;;
25982;SDS011;13773;48.868;10.730;2023-11-21T11:17:52;2.70;;;1.93;;
25982;SDS011;13773;48.868;10.730;2023-11-21T11:20:21;2.73;;;1.80;;
25982;SDS011;13773;48.868;10.730;2023-11-21T11:28:29;2.40;;;2.20;;
25982;SDS011;13773;48.868;10.730;2023-11-21T11:31:24;3.00;;;2.20;;
25982;SDS011;13773;48.868;10.730;2023-11-21T11:37:08;2.10;;;1.93;;
25982;SDS011;13773;48.868;10.730;2023-11-21T11:39:35;4.10;;;2.47;;
25982;SDS011;13773;48.868;10.730;2023-11-21T11:42:03;3.23;;;2.13;;
25982;SDS011;13773;48.868;10.730;2023-11-21T11:47:15;1.80;;;1.70;;
25982;SDS011;13773;48.868;10.730;2023-11-21T11:49:56;1.30;;;1.20;;
25982;SDS011;13773;48.868;10.730;2023-11-21T11:52:39;2.07;;;1.50;;
25982;SDS011;13773;48.868;10.730;2023-11-21T11:55:05;1.70;;;1.37;;
25982;SDS011;13773;48.868;10.730;2023-11-21T11:57:35;1.73;;;1.17;;
25982;SDS011;13773;48.868;10.730;2023-11-21T12:02:37;4.93;;;3.97;;
25982;SDS011;13773;48.868;10.730;2023-11-21T12:05:11;2.30;;;2.10;;
25982;SDS011;13773;48.868;10.730;2023-11-21T12:07:43;2.80;;;1.90;;
25982;SDS011;13773;48.868;10.730;2023-11-21T12:10:20;2.17;;;2.00;;
25982;SDS011;13773;48.868;10.730;2023-11-21T12:12:50;1.83;;;1.73;;
25982;SDS011;13773;48.868;10.730;2023-11-21T12:15:20;3.10;;;2.03;;
25982;SDS011;13773;48.868;10.730;2023-11-21T12:17:46;3.87;;;2.73;;
25982;SDS011;13773;48.868;10.730;2023-11-21T12:20:14;2.00;;;1.80;;
25982;SDS011;13773;48.868;10.730;2023-11-21T12:22:43;4.37;;;3.17;;
25982;SDS011;13773;48.868;10.730;2023-11-21T12:25:12;2.30;;;2.10;;
25982;SDS011;13773;48.868;10.730;2023-11-21T12:27:43;2.30;;;2.10;;
25982;SDS011;13773;48.868;10.730;2023-11-21T12:30:17;3.00;;;1.90;;
25982;SDS011;13773;48.868;10.730;2023-11-21T12:32:45;2.40;;;2.20;;
25982;SDS011;13773;48.868;10.730;2023-11-21T12:35:14;3.13;;;2.80;;
25982;SDS011;13773;48.868;10.730;2023-11-21T12:37:41;2.63;;;2.27;;
25982;SDS011;13773;48.868;10.730;2023-11-21T12:40:10;2.97;;;2.50;;
25982;SDS011;13773;48.868;10.730;2023-11-21T12:42:47;3.70;;;3.27;;
25982;SDS011;13773;48.868;10.730;2023-11-21T12:47:40;3.07;;;2.60;;
25982;SDS011;13773;48.868;10.730;2023-11-21T12:50:07;2.50;;;2.30;;
25982;SDS011;13773;48.868;10.730;2023-11-21T12:52:39;2.53;;;2.10;;
25982;SDS011;13773;48.868;10.730;2023-11-21T12:55:13;2.27;;;2.07;;
25982;SDS011;13773;48.868;10.730;2023-11-21T12:57:41;2.17;;;1.93;;
25982;SDS011;13773;48.868;10.730;2023-11-21T13:00:08;1.77;;;1.67;;
25982;SDS011;13773;48.868;10.730;2023-11-21T13:02:38;2.07;;;1.60;;
25982;SDS011;13773;48.868;10.730;2023-11-21T13:05:07;2.30;;;1.47;;
25982;SDS011;13773;48.868;10.730;2023-11-21T13:07:43;1.57;;;1.47;;
25982;SDS011;13773;48.868;10.730;2023-11-21T13:10:12;1.87;;;1.63;;
25982;SDS011;13773;48.868;10.730;2023-11-21T13:12:45;1.63;;;1.20;;
25982;SDS011;13773;48.868;10.730;2023-11-21T13:15:13;1.40;;;1.20;;
25982;SDS011;13773;48.868;10.730;2023-11-21T13:17:45;1.73;;;1.07;;
25982;SDS011;13773;48.868;10.730;2023-11-21T13:20:12;1.37;;;0.77;;
25982;SDS011;13773;48.868;10.730;2023-11-21T13:22:50;0.30;;;0.30;;
25982;SDS011;13773;48.868;10.730;2023-11-21T13:25:27;1.07;;;1.00;;
25982;SDS011;13773;48.868;10.730;2023-11-21T13:28:02;0.97;;;0.90;;
25982;SDS011;13773;48.868;10.730;2023-11-21T13:30:28;1.27;;;1.17;;
25982;SDS011;13773;48.868;10.730;2023-11-21T13:33:01;2.67;;;2.47;;
25982;SDS011;13773;48.868;10.730;2023-11-21T13:35:31;0.70;;;0.70;;
25982;SDS011;13773;48.868;10.730;2023-11-21T13:38:06;0.60;;;0.60;;
25982;SDS011;13773;48.868;10.730;2023-11-21T13:40:34;3.70;;;3.40;;
25982;SDS011;13773;48.868;10.730;2023-11-21T13:43:12;1.30;;;0.93;;
25982;SDS011;13773;48.868;10.730;2023-11-21T13:45:41;1.33;;;0.90;;
25982;SDS011;13773;48.868;10.730;2023-11-21T13:48:08;0.83;;;0.80;;
25982;SDS011;13773;48.868;10.730;2023-11-21T13:50:41;0.77;;;0.73;;
25982;SDS011;13773;48.868;10.730;2023-11-21T13:53:13;2.83;;;2.57;;
25982;SDS011;13773;48.868;10.730;2023-11-21T13:55:51;2.37;;;2.17;;
25982;SDS011;13773;48.868;10.730;2023-11-21T13:58:22;1.13;;;1.00;;
25982;SDS011;13773;48.868;10.730;2023-11-21T14:01:00;2.10;;;1.13;;
25982;SDS011;13773;48.868;10.730;2023-11-21T14:03:26;2.43;;;1.17;;
25982;SDS011;13773;48.868;10.730;2023-11-21T14:06:04;1.70;;;1.60;;
25982;SDS011;13773;48.868;10.730;2023-11-21T14:08:39;2.20;;;1.10;;
25982;SDS011;13773;48.868;10.730;2023-11-21T14:11:07;1.97;;;1.87;;
25982;SDS011;13773;48.868;10.730;2023-11-21T14:13:36;5.40;;;4.87;;
25982;SDS011;13773;48.868;10.730;2023-11-21T14:16:02;2.53;;;1.17;;
25982;SDS011;13773;48.868;10.730;2023-11-21T14:18:31;1.30;;;1.20;;
25982;SDS011;13773;48.868;10.730;2023-11-21T14:21:04;1.80;;;1.70;;
25982;SDS011;13773;48.868;10.730;2023-11-21T14:23:31;1.80;;;1.53;;
25982;SDS011;13773;48.868;10.730;2023-11-21T14:25:58;2.20;;;1.00;;
25982;SDS011;13773;48.868;10.730;2023-11-21T14:28:26;1.57;;;1.30;;
25982;SDS011;13773;48.868;10.730;2023-11-21T14:30:51;1.30;;;1.20;;
25982;SDS011;13773;48.868;10.730;2023-11-21T14:33:17;1.83;;;1.43;;
25982;SDS011;13773;48.868;10.730;2023-11-21T14:35:43;0.93;;;0.90;;
25982;SDS011;13773;48.868;10.730;2023-11-21T14:38:09;2.37;;;1.50;;
25982;SDS011;13773;48.868;10.730;2023-11-21T14:40:35;1.70;;;1.37;;
25982;SDS011;13773;48.868;10.730;2023-11-21T14:43:02;1.30;;;1.20;;
25982;SDS011;13773;48.868;10.730;2023-11-21T14:45:31;1.40;;;1.30;;
25982;SDS011;13773;48.868;10.730;2023-11-21T14:47:57;2.53;;;1.40;;
25982;SDS011;13773;48.868;10.730;2023-11-21T14:50:51;2.30;;;1.60;;
25982;SDS011;13773;48.868;10.730;2023-11-21T14:53:17;1.60;;;1.37;;
25982;SDS011;13773;48.868;10.730;2023-11-21T14:56:03;2.80;;;1.60;;
25982;SDS011;13773;48.868;10.730;2023-11-21T14:58:29;1.93;;;1.67;;